sensor_id;sensor_type;location;lat;lon;timestamp;temperature;humidity
75683;HTU21D;64295;44.772;39.872;2023-04-30T00:01:26;9.26;77.07
75683;HTU21D;64295;44.772;39.872;2023-04-30T00:03:52;9.21;77.08
75683;HTU21D;64295;44.772;39.872;2023-04-30T00:06:18;9.16;77.15
75683;HTU21D;64295;44.772;39.872;2023-04-30T00:08:44;9.09;77.22
75683;HTU21D;64295;44.772;39.872;2023-04-30T00:11:10;9.01;77.30
75683;HTU21D;64295;44.772;39.872;2023-04-30T00:13:36;9.02;77.31
75683;HTU21D;64295;44.772;39.872;2023-04-30T00:16:02;9.06;77.15
75683;HTU21D;64295;44.772;39.872;2023-04-30T00:18:28;9.12;77.00
75683;HTU21D;64295;44.772;39.872;2023-04-30T00:20:53;9.18;76.83
75683;HTU21D;64295;44.772;39.872;2023-04-30T00:23:19;9.25;76.71
75683;HTU21D;64295;44.772;39.872;2023-04-30T00:25:45;9.34;76.55
75683;HTU21D;64295;44.772;39.872;2023-04-30T00:28:11;9.37;76.47
75683;HTU21D;64295;44.772;39.872;2023-04-30T00:30:37;9.37;76.46
75683;HTU21D;64295;44.772;39.872;2023-04-30T00:33:03;9.38;76.48
75683;HTU21D;64295;44.772;39.872;2023-04-30T00:35:30;9.41;76.46
75683;HTU21D;64295;44.772;39.872;2023-04-30T00:37:55;9.42;76.46
75683;HTU21D;64295;44.772;39.872;2023-04-30T00:40:21;9.48;76.42
75683;HTU21D;64295;44.772;39.872;2023-04-30T00:42:58;9.51;76.35
75683;HTU21D;64295;44.772;39.872;2023-04-30T00:45:29;9.50;76.34
75683;HTU21D;64295;44.772;39.872;2023-04-30T00:47:55;9.50;76.35
75683;HTU21D;64295;44.772;39.872;2023-04-30T00:50:22;9.53;76.31
75683;HTU21D;64295;44.772;39.872;2023-04-30T00:52:48;9.52;76.33
75683;HTU21D;64295;44.772;39.872;2023-04-30T00:55:14;9.52;76.37
75683;HTU21D;64295;44.772;39.872;2023-04-30T00:57:41;9.53;76.32
75683;HTU21D;64295;44.772;39.872;2023-04-30T01:00:07;9.53;76.37
75683;HTU21D;64295;44.772;39.872;2023-04-30T01:02:37;9.53;76.37
75683;HTU21D;64295;44.772;39.872;2023-04-30T01:05:03;9.53;76.41
75683;HTU21D;64295;44.772;39.872;2023-04-30T01:07:32;9.52;76.38
75683;HTU21D;64295;44.772;39.872;2023-04-30T01:09:58;9.54;76.35
75683;HTU21D;64295;44.772;39.872;2023-04-30T01:12:36;9.52;76.37
75683;HTU21D;64295;44.772;39.872;2023-04-30T01:17:43;9.41;76.56
75683;HTU21D;64295;44.772;39.872;2023-04-30T01:20:10;9.45;76.50
75683;HTU21D;64295;44.772;39.872;2023-04-30T01:22:54;9.47;76.47
75683;HTU21D;64295;44.772;39.872;2023-04-30T01:28:27;9.52;76.26
75683;HTU21D;64295;44.772;39.872;2023-04-30T01:30:54;9.54;76.23
75683;HTU21D;64295;44.772;39.872;2023-04-30T01:33:20;9.54;76.23
75683;HTU21D;64295;44.772;39.872;2023-04-30T01:41:27;9.53;76.30
75683;HTU21D;64295;44.772;39.872;2023-04-30T01:47:03;9.42;76.42
75683;HTU21D;64295;44.772;39.872;2023-04-30T01:52:35;9.37;76.49
75683;HTU21D;64295;44.772;39.872;2023-04-30T01:55:07;9.35;76.47
75683;HTU21D;64295;44.772;39.872;2023-04-30T01:57:45;9.32;76.57
75683;HTU21D;64295;44.772;39.872;2023-04-30T02:00:15;9.29;76.58
75683;HTU21D;64295;44.772;39.872;2023-04-30T02:02:42;9.30;76.66
75683;HTU21D;64295;44.772;39.872;2023-04-30T02:05:08;9.37;76.51
75683;HTU21D;64295;44.772;39.872;2023-04-30T02:07:40;9.42;76.37
75683;HTU21D;64295;44.772;39.872;2023-04-30T02:10:08;9.47;76.27
75683;HTU21D;64295;44.772;39.872;2023-04-30T02:12:34;9.52;76.21
75683;HTU21D;64295;44.772;39.872;2023-04-30T02:15:01;9.54;76.20
75683;HTU21D;64295;44.772;39.872;2023-04-30T02:17:27;9.60;76.12
75683;HTU21D;64295;44.772;39.872;2023-04-30T02:19:53;9.63;76.08
75683;HTU21D;64295;44.772;39.872;2023-04-30T02:22:19;9.66;76.05
75683;HTU21D;64295;44.772;39.872;2023-04-30T02:24:45;9.67;76.05
75683;HTU21D;64295;44.772;39.872;2023-04-30T02:27:11;9.68;76.08
75683;HTU21D;64295;44.772;39.872;2023-04-30T02:30:03;9.68;76.18
75683;HTU21D;64295;44.772;39.872;2023-04-30T02:32:34;9.70;76.12
75683;HTU21D;64295;44.772;39.872;2023-04-30T02:35:00;9.72;76.15
75683;HTU21D;64295;44.772;39.872;2023-04-30T02:37:26;9.74;76.13
75683;HTU21D;64295;44.772;39.872;2023-04-30T02:39:52;9.80;76.10
75683;HTU21D;64295;44.772;39.872;2023-04-30T02:42:18;9.84;76.03
75683;HTU21D;64295;44.772;39.872;2023-04-30T02:44:44;9.88;76.00
75683;HTU21D;64295;44.772;39.872;2023-04-30T02:47:10;9.90;76.02
75683;HTU21D;64295;44.772;39.872;2023-04-30T02:49:36;9.93;76.00
75683;HTU21D;64295;44.772;39.872;2023-04-30T02:52:04;9.97;75.96
75683;HTU21D;64295;44.772;39.872;2023-04-30T02:54:40;10.04;75.92
75683;HTU21D;64295;44.772;39.872;2023-04-30T02:57:10;10.07;75.89
75683;HTU21D;64295;44.772;39.872;2023-04-30T02:59:36;10.10;75.88
75683;HTU21D;64295;44.772;39.872;2023-04-30T03:02:03;10.13;75.84
75683;HTU21D;64295;44.772;39.872;2023-04-30T03:04:30;10.15;75.83
75683;HTU21D;64295;44.772;39.872;2023-04-30T03:06:59;10.18;75.83
75683;HTU21D;64295;44.772;39.872;2023-04-30T03:09:25;10.19;75.91
75683;HTU21D;64295;44.772;39.872;2023-04-30T03:11:51;10.20;75.90
75683;HTU21D;64295;44.772;39.872;2023-04-30T03:14:17;10.23;75.92
75683;HTU21D;64295;44.772;39.872;2023-04-30T03:16:43;10.26;75.87
75683;HTU21D;64295;44.772;39.872;2023-04-30T03:19:10;10.29;75.88
75683;HTU21D;64295;44.772;39.872;2023-04-30T03:21:36;10.31;75.86
75683;HTU21D;64295;44.772;39.872;2023-04-30T03:24:02;10.30;75.89
75683;HTU21D;64295;44.772;39.872;2023-04-30T03:26:38;10.33;75.93
75683;HTU21D;64295;44.772;39.872;2023-04-30T03:29:03;10.34;75.88
75683;HTU21D;64295;44.772;39.872;2023-04-30T03:31:29;10.33;75.79
75683;HTU21D;64295;44.772;39.872;2023-04-30T03:33:55;10.30;75.92
75683;HTU21D;64295;44.772;39.872;2023-04-30T03:36:27;10.28;76.05
75683;HTU21D;64295;44.772;39.872;2023-04-30T03:39:02;10.30;76.03
75683;HTU21D;64295;44.772;39.872;2023-04-30T03:41:28;10.35;75.99
75683;HTU21D;64295;44.772;39.872;2023-04-30T03:43:54;10.42;75.89
75683;HTU21D;64295;44.772;39.872;2023-04-30T03:46:20;10.46;75.81
75683;HTU21D;64295;44.772;39.872;2023-04-30T03:48:47;10.50;75.84
75683;HTU21D;64295;44.772;39.872;2023-04-30T03:51:13;10.53;75.81
75683;HTU21D;64295;44.772;39.872;2023-04-30T03:53:39;10.52;75.86
75683;HTU21D;64295;44.772;39.872;2023-04-30T03:56:05;10.51;75.95
75683;HTU21D;64295;44.772;39.872;2023-04-30T03:58:32;10.49;76.04
75683;HTU21D;64295;44.772;39.872;2023-04-30T04:00:57;10.49;76.07
75683;HTU21D;64295;44.772;39.872;2023-04-30T04:03:24;10.53;76.07
75683;HTU21D;64295;44.772;39.872;2023-04-30T04:05:50;10.59;75.97
75683;HTU21D;64295;44.772;39.872;2023-04-30T04:08:16;10.64;75.92
75683;HTU21D;64295;44.772;39.872;2023-04-30T04:10:42;10.64;75.91
75683;HTU21D;64295;44.772;39.872;2023-04-30T04:13:08;10.58;76.06
75683;HTU21D;64295;44.772;39.872;2023-04-30T04:15:36;10.57;76.19
75683;HTU21D;64295;44.772;39.872;2023-04-30T04:18:02;10.68;76.13
75683;HTU21D;64295;44.772;39.872;2023-04-30T04:20:29;10.72;76.00
75683;HTU21D;64295;44.772;39.872;2023-04-30T04:22:55;10.73;75.99
75683;HTU21D;64295;44.772;39.872;2023-04-30T04:25:21;10.69;76.05
75683;HTU21D;64295;44.772;39.872;2023-04-30T04:27:52;10.59;76.28
75683;HTU21D;64295;44.772;39.872;2023-04-30T04:30:18;10.52;76.51
75683;HTU21D;64295;44.772;39.872;2023-04-30T04:32:45;10.46;76.62
75683;HTU21D;64295;44.772;39.872;2023-04-30T04:35:13;10.46;76.64
75683;HTU21D;64295;44.772;39.872;2023-04-30T04:37:40;10.43;76.62
75683;HTU21D;64295;44.772;39.872;2023-04-30T04:40:07;10.41;76.68
75683;HTU21D;64295;44.772;39.872;2023-04-30T04:42:34;10.40;76.72
75683;HTU21D;64295;44.772;39.872;2023-04-30T04:45:00;10.36;76.79
75683;HTU21D;64295;44.772;39.872;2023-04-30T04:47:26;10.34;76.86
75683;HTU21D;64295;44.772;39.872;2023-04-30T04:49:52;10.30;76.93
75683;HTU21D;64295;44.772;39.872;2023-04-30T04:52:18;10.28;76.98
75683;HTU21D;64295;44.772;39.872;2023-04-30T04:54:44;10.29;76.97
75683;HTU21D;64295;44.772;39.872;2023-04-30T04:57:12;10.28;76.98
75683;HTU21D;64295;44.772;39.872;2023-04-30T04:59:38;10.31;76.95
75683;HTU21D;64295;44.772;39.872;2023-04-30T05:02:04;10.35;76.89
75683;HTU21D;64295;44.772;39.872;2023-04-30T05:04:29;10.35;76.89
75683;HTU21D;64295;44.772;39.872;2023-04-30T05:06:56;10.37;76.91
75683;HTU21D;64295;44.772;39.872;2023-04-30T05:09:21;10.39;76.89
75683;HTU21D;64295;44.772;39.872;2023-04-30T05:11:48;10.38;76.95
75683;HTU21D;64295;44.772;39.872;2023-04-30T05:14:15;10.39;76.95
75683;HTU21D;64295;44.772;39.872;2023-04-30T05:16:40;10.37;77.02
75683;HTU21D;64295;44.772;39.872;2023-04-30T05:19:06;10.40;77.04
75683;HTU21D;64295;44.772;39.872;2023-04-30T05:21:34;10.43;77.01
75683;HTU21D;64295;44.772;39.872;2023-04-30T05:24:02;10.41;77.08
75683;HTU21D;64295;44.772;39.872;2023-04-30T05:26:28;10.40;77.18
75683;HTU21D;64295;44.772;39.872;2023-04-30T05:28:54;10.39;77.28
75683;HTU21D;64295;44.772;39.872;2023-04-30T05:31:19;10.41;77.27
75683;HTU21D;64295;44.772;39.872;2023-04-30T05:33:46;10.43;77.22
75683;HTU21D;64295;44.772;39.872;2023-04-30T05:36:12;10.45;77.20
75683;HTU21D;64295;44.772;39.872;2023-04-30T05:38:40;10.48;77.27
75683;HTU21D;64295;44.772;39.872;2023-04-30T05:41:06;10.49;77.32
75683;HTU21D;64295;44.772;39.872;2023-04-30T05:43:32;10.55;77.24
75683;HTU21D;64295;44.772;39.872;2023-04-30T05:45:58;10.57;77.18
75683;HTU21D;64295;44.772;39.872;2023-04-30T05:48:24;10.63;77.12
75683;HTU21D;64295;44.772;39.872;2023-04-30T05:50:50;10.60;77.16
75683;HTU21D;64295;44.772;39.872;2023-04-30T05:53:16;10.62;77.19
75683;HTU21D;64295;44.772;39.872;2023-04-30T05:55:42;10.63;77.19
75683;HTU21D;64295;44.772;39.872;2023-04-30T05:58:08;10.66;77.17
75683;HTU21D;64295;44.772;39.872;2023-04-30T06:00:35;10.66;77.12
75683;HTU21D;64295;44.772;39.872;2023-04-30T06:03:04;10.67;77.16
75683;HTU21D;64295;44.772;39.872;2023-04-30T06:05:30;10.68;77.15
75683;HTU21D;64295;44.772;39.872;2023-04-30T06:07:55;10.70;77.11
75683;HTU21D;64295;44.772;39.872;2023-04-30T06:10:21;10.77;77.02
75683;HTU21D;64295;44.772;39.872;2023-04-30T06:12:47;10.79;76.94
75683;HTU21D;64295;44.772;39.872;2023-04-30T06:15:13;10.81;76.92
75683;HTU21D;64295;44.772;39.872;2023-04-30T06:17:39;10.82;76.93
75683;HTU21D;64295;44.772;39.872;2023-04-30T06:20:06;10.89;76.92
75683;HTU21D;64295;44.772;39.872;2023-04-30T06:22:32;11.00;76.71
75683;HTU21D;64295;44.772;39.872;2023-04-30T06:24:58;11.07;76.62
75683;HTU21D;64295;44.772;39.872;2023-04-30T06:27:37;11.18;76.53
75683;HTU21D;64295;44.772;39.872;2023-04-30T06:30:04;11.25;76.37
75683;HTU21D;64295;44.772;39.872;2023-04-30T06:32:30;11.37;76.24
75683;HTU21D;64295;44.772;39.872;2023-04-30T06:38:23;11.53;75.90
75683;HTU21D;64295;44.772;39.872;2023-04-30T06:40:49;11.56;75.97
75683;HTU21D;64295;44.772;39.872;2023-04-30T06:43:25;11.57;76.03
75683;HTU21D;64295;44.772;39.872;2023-04-30T06:45:52;11.56;76.08
75683;HTU21D;64295;44.772;39.872;2023-04-30T06:48:18;11.54;76.20
75683;HTU21D;64295;44.772;39.872;2023-04-30T06:50:44;11.53;76.26
75683;HTU21D;64295;44.772;39.872;2023-04-30T06:53:14;11.45;76.41
75683;HTU21D;64295;44.772;39.872;2023-04-30T06:55:40;11.45;76.42
75683;HTU21D;64295;44.772;39.872;2023-04-30T06:58:06;11.45;76.33
75683;HTU21D;64295;44.772;39.872;2023-04-30T07:00:33;11.45;76.34
75683;HTU21D;64295;44.772;39.872;2023-04-30T07:02:59;11.49;76.29
75683;HTU21D;64295;44.772;39.872;2023-04-30T07:05:38;11.58;76.24
75683;HTU21D;64295;44.772;39.872;2023-04-30T07:08:06;11.87;76.18
75683;HTU21D;64295;44.772;39.872;2023-04-30T07:10:32;12.14;75.28
75683;HTU21D;64295;44.772;39.872;2023-04-30T07:12:58;12.11;75.39
75683;HTU21D;64295;44.772;39.872;2023-04-30T07:15:24;12.08;75.59
75683;HTU21D;64295;44.772;39.872;2023-04-30T07:17:50;12.10;75.60
75683;HTU21D;64295;44.772;39.872;2023-04-30T07:20:16;12.07;75.69
75683;HTU21D;64295;44.772;39.872;2023-04-30T07:22:46;12.03;75.83
75683;HTU21D;64295;44.772;39.872;2023-04-30T07:25:17;11.94;75.98
75683;HTU21D;64295;44.772;39.872;2023-04-30T07:27:43;11.92;76.04
75683;HTU21D;64295;44.772;39.872;2023-04-30T07:30:09;11.92;76.08
75683;HTU21D;64295;44.772;39.872;2023-04-30T07:32:38;11.92;76.08
75683;HTU21D;64295;44.772;39.872;2023-04-30T07:35:06;12.02;75.93
75683;HTU21D;64295;44.772;39.872;2023-04-30T07:37:32;12.22;75.57
75683;HTU21D;64295;44.772;39.872;2023-04-30T07:39:58;12.46;75.06
75683;HTU21D;64295;44.772;39.872;2023-04-30T07:42:24;12.59;74.77
75683;HTU21D;64295;44.772;39.872;2023-04-30T07:44:50;12.62;74.70
75683;HTU21D;64295;44.772;39.872;2023-04-30T07:47:17;12.67;74.76
75683;HTU21D;64295;44.772;39.872;2023-04-30T07:49:48;12.71;74.68
75683;HTU21D;64295;44.772;39.872;2023-04-30T07:52:14;12.74;74.76
75683;HTU21D;64295;44.772;39.872;2023-04-30T07:54:43;12.80;74.69
75683;HTU21D;64295;44.772;39.872;2023-04-30T07:57:09;12.79;74.67
75683;HTU21D;64295;44.772;39.872;2023-04-30T07:59:34;12.87;74.65
75683;HTU21D;64295;44.772;39.872;2023-04-30T08:02:00;13.02;74.44
75683;HTU21D;64295;44.772;39.872;2023-04-30T08:04:26;13.07;74.34
75683;HTU21D;64295;44.772;39.872;2023-04-30T08:06:52;13.07;74.39
75683;HTU21D;64295;44.772;39.872;2023-04-30T08:09:18;13.08;74.48
75683;HTU21D;64295;44.772;39.872;2023-04-30T08:11:45;13.06;74.42
75683;HTU21D;64295;44.772;39.872;2023-04-30T08:14:11;13.02;74.54
75683;HTU21D;64295;44.772;39.872;2023-04-30T08:16:40;13.06;74.51
75683;HTU21D;64295;44.772;39.872;2023-04-30T08:19:17;13.14;74.42
75683;HTU21D;64295;44.772;39.872;2023-04-30T08:21:53;13.31;74.10
75683;HTU21D;64295;44.772;39.872;2023-04-30T08:24:28;13.43;73.91
75683;HTU21D;64295;44.772;39.872;2023-04-30T08:27:02;13.54;73.66
75683;HTU21D;64295;44.772;39.872;2023-04-30T08:29:41;13.64;73.47
75683;HTU21D;64295;44.772;39.872;2023-04-30T08:32:08;13.68;73.47
75683;HTU21D;64295;44.772;39.872;2023-04-30T08:34:50;13.71;73.44
75683;HTU21D;64295;44.772;39.872;2023-04-30T08:37:18;13.80;73.44
75683;HTU21D;64295;44.772;39.872;2023-04-30T08:39:49;13.92;73.11
75683;HTU21D;64295;44.772;39.872;2023-04-30T08:42:16;13.91;73.19
75683;HTU21D;64295;44.772;39.872;2023-04-30T08:44:43;13.93;73.22
75683;HTU21D;64295;44.772;39.872;2023-04-30T08:47:11;14.00;73.19
75683;HTU21D;64295;44.772;39.872;2023-04-30T08:49:39;14.12;73.05
75683;HTU21D;64295;44.772;39.872;2023-04-30T08:52:06;14.24;72.90
75683;HTU21D;64295;44.772;39.872;2023-04-30T08:54:35;14.32;72.73
75683;HTU21D;64295;44.772;39.872;2023-04-30T08:57:01;14.40;72.58
75683;HTU21D;64295;44.772;39.872;2023-04-30T08:59:27;14.41;72.45
75683;HTU21D;64295;44.772;39.872;2023-04-30T09:01:53;14.40;72.40
75683;HTU21D;64295;44.772;39.872;2023-04-30T09:04:19;14.36;72.17
75683;HTU21D;64295;44.772;39.872;2023-04-30T09:06:46;14.29;72.15
75683;HTU21D;64295;44.772;39.872;2023-04-30T09:09:13;14.29;71.95
75683;HTU21D;64295;44.772;39.872;2023-04-30T09:11:40;14.40;71.71
75683;HTU21D;64295;44.772;39.872;2023-04-30T09:14:07;14.59;71.29
75683;HTU21D;64295;44.772;39.872;2023-04-30T09:16:49;14.92;70.48
75683;HTU21D;64295;44.772;39.872;2023-04-30T09:19:29;15.19;69.86
75683;HTU21D;64295;44.772;39.872;2023-04-30T09:21:55;15.37;69.50
75683;HTU21D;64295;44.772;39.872;2023-04-30T09:24:24;15.39;69.16
75683;HTU21D;64295;44.772;39.872;2023-04-30T09:26:50;15.46;69.29
75683;HTU21D;64295;44.772;39.872;2023-04-30T09:29:16;15.68;68.98
75683;HTU21D;64295;44.772;39.872;2023-04-30T09:31:44;15.75;68.59
75683;HTU21D;64295;44.772;39.872;2023-04-30T09:34:12;15.75;68.88
75683;HTU21D;64295;44.772;39.872;2023-04-30T09:36:56;15.95;68.87
75683;HTU21D;64295;44.772;39.872;2023-04-30T09:39:24;16.17;68.43
75683;HTU21D;64295;44.772;39.872;2023-04-30T09:41:50;16.26;68.02
75683;HTU21D;64295;44.772;39.872;2023-04-30T09:44:30;16.19;68.03
75683;HTU21D;64295;44.772;39.872;2023-04-30T09:46:57;16.13;68.20
75683;HTU21D;64295;44.772;39.872;2023-04-30T09:49:23;16.11;68.07
75683;HTU21D;64295;44.772;39.872;2023-04-30T09:51:57;16.04;67.67
75683;HTU21D;64295;44.772;39.872;2023-04-30T09:54:28;16.00;67.46
75683;HTU21D;64295;44.772;39.872;2023-04-30T09:56:59;15.96;67.47
75683;HTU21D;64295;44.772;39.872;2023-04-30T09:59:33;15.89;66.91
75683;HTU21D;64295;44.772;39.872;2023-04-30T10:02:06;15.83;67.38
75683;HTU21D;64295;44.772;39.872;2023-04-30T10:04:37;15.80;67.20
75683;HTU21D;64295;44.772;39.872;2023-04-30T10:07:07;15.81;67.40
75683;HTU21D;64295;44.772;39.872;2023-04-30T10:09:39;15.92;67.47
75683;HTU21D;64295;44.772;39.872;2023-04-30T10:12:14;16.00;67.11
75683;HTU21D;64295;44.772;39.872;2023-04-30T10:14:51;15.88;67.11
75683;HTU21D;64295;44.772;39.872;2023-04-30T10:17:22;15.89;67.15
75683;HTU21D;64295;44.772;39.872;2023-04-30T10:19:54;15.90;67.04
75683;HTU21D;64295;44.772;39.872;2023-04-30T10:22:22;16.00;67.01
75683;HTU21D;64295;44.772;39.872;2023-04-30T10:24:49;16.07;66.53
75683;HTU21D;64295;44.772;39.872;2023-04-30T10:27:16;16.15;65.56
75683;HTU21D;64295;44.772;39.872;2023-04-30T10:29:46;16.05;65.27
75683;HTU21D;64295;44.772;39.872;2023-04-30T10:32:15;15.98;64.92
75683;HTU21D;64295;44.772;39.872;2023-04-30T10:34:52;15.90;65.22
75683;HTU21D;64295;44.772;39.872;2023-04-30T10:37:42;15.90;65.33
75683;HTU21D;64295;44.772;39.872;2023-04-30T10:40:11;15.90;65.29
75683;HTU21D;64295;44.772;39.872;2023-04-30T10:42:45;15.86;65.38
75683;HTU21D;64295;44.772;39.872;2023-04-30T10:45:11;15.87;64.98
75683;HTU21D;64295;44.772;39.872;2023-04-30T10:47:41;15.81;64.85
75683;HTU21D;64295;44.772;39.872;2023-04-30T10:50:08;15.72;64.51
75683;HTU21D;64295;44.772;39.872;2023-04-30T10:52:39;15.61;64.72
75683;HTU21D;64295;44.772;39.872;2023-04-30T10:55:07;15.58;64.75
75683;HTU21D;64295;44.772;39.872;2023-04-30T10:57:43;15.60;64.84
75683;HTU21D;64295;44.772;39.872;2023-04-30T11:02:40;15.59;64.50
75683;HTU21D;64295;44.772;39.872;2023-04-30T11:05:18;15.54;64.31
75683;HTU21D;64295;44.772;39.872;2023-04-30T11:07:48;15.51;63.97
75683;HTU21D;64295;44.772;39.872;2023-04-30T11:10:15;15.43;63.84
75683;HTU21D;64295;44.772;39.872;2023-04-30T11:12:52;15.45;63.31
75683;HTU21D;64295;44.772;39.872;2023-04-30T11:15:20;15.39;63.17
75683;HTU21D;64295;44.772;39.872;2023-04-30T11:17:48;15.34;63.00
75683;HTU21D;64295;44.772;39.872;2023-04-30T11:20:24;15.33;63.21
75683;HTU21D;64295;44.772;39.872;2023-04-30T11:23:12;15.32;62.75
75683;HTU21D;64295;44.772;39.872;2023-04-30T11:25:44;15.32;62.79
75683;HTU21D;64295;44.772;39.872;2023-04-30T11:28:23;15.34;63.06
75683;HTU21D;64295;44.772;39.872;2023-04-30T11:33:22;15.48;62.75
75683;HTU21D;64295;44.772;39.872;2023-04-30T11:35:55;15.45;63.01
75683;HTU21D;64295;44.772;39.872;2023-04-30T11:38:30;15.45;63.11
75683;HTU21D;64295;44.772;39.872;2023-04-30T11:41:04;15.47;63.19
75683;HTU21D;64295;44.772;39.872;2023-04-30T11:43:32;15.47;63.20
75683;HTU21D;64295;44.772;39.872;2023-04-30T11:46:12;15.52;63.25
75683;HTU21D;64295;44.772;39.872;2023-04-30T11:48:40;15.53;63.35
75683;HTU21D;64295;44.772;39.872;2023-04-30T11:51:17;15.58;63.31
75683;HTU21D;64295;44.772;39.872;2023-04-30T11:53:45;15.70;63.10
75683;HTU21D;64295;44.772;39.872;2023-04-30T11:56:11;15.87;62.46
75683;HTU21D;64295;44.772;39.872;2023-04-30T11:58:37;15.92;62.08
75683;HTU21D;64295;44.772;39.872;2023-04-30T12:01:06;16.10;61.95
75683;HTU21D;64295;44.772;39.872;2023-04-30T12:03:44;16.35;61.69
75683;HTU21D;64295;44.772;39.872;2023-04-30T12:06:11;16.52;61.53
75683;HTU21D;64295;44.772;39.872;2023-04-30T12:08:39;16.60;60.90
75683;HTU21D;64295;44.772;39.872;2023-04-30T12:11:18;16.71;60.82
75683;HTU21D;64295;44.772;39.872;2023-04-30T12:13:55;16.74;60.67
75683;HTU21D;64295;44.772;39.872;2023-04-30T12:16:23;16.80;60.79
75683;HTU21D;64295;44.772;39.872;2023-04-30T12:18:50;16.82;60.64
75683;HTU21D;64295;44.772;39.872;2023-04-30T12:21:16;16.81;60.91
75683;HTU21D;64295;44.772;39.872;2023-04-30T12:23:43;17.01;60.84
75683;HTU21D;64295;44.772;39.872;2023-04-30T12:26:09;17.18;60.62
75683;HTU21D;64295;44.772;39.872;2023-04-30T12:28:35;17.18;60.40
75683;HTU21D;64295;44.772;39.872;2023-04-30T12:31:01;17.06;60.95
75683;HTU21D;64295;44.772;39.872;2023-04-30T12:33:30;17.02;61.13
75683;HTU21D;64295;44.772;39.872;2023-04-30T12:35:57;16.96;61.34
75683;HTU21D;64295;44.772;39.872;2023-04-30T12:38:24;16.92;61.44
75683;HTU21D;64295;44.772;39.872;2023-04-30T12:40:50;16.89;61.57
75683;HTU21D;64295;44.772;39.872;2023-04-30T12:43:17;16.94;61.16
75683;HTU21D;64295;44.772;39.872;2023-04-30T12:45:53;16.91;60.99
75683;HTU21D;64295;44.772;39.872;2023-04-30T12:48:24;16.79;61.07
75683;HTU21D;64295;44.772;39.872;2023-04-30T12:50:57;16.77;61.34
75683;HTU21D;64295;44.772;39.872;2023-04-30T12:53:23;16.78;61.31
75683;HTU21D;64295;44.772;39.872;2023-04-30T12:56:16;16.77;61.44
75683;HTU21D;64295;44.772;39.872;2023-04-30T12:58:44;16.91;61.29
75683;HTU21D;64295;44.772;39.872;2023-04-30T13:01:12;17.04;61.02
75683;HTU21D;64295;44.772;39.872;2023-04-30T13:03:38;17.15;60.96
75683;HTU21D;64295;44.772;39.872;2023-04-30T13:06:04;17.20;60.73
75683;HTU21D;64295;44.772;39.872;2023-04-30T13:08:31;17.39;60.25
75683;HTU21D;64295;44.772;39.872;2023-04-30T13:10:57;17.48;59.93
75683;HTU21D;64295;44.772;39.872;2023-04-30T13:13:26;17.55;59.33
75683;HTU21D;64295;44.772;39.872;2023-04-30T13:15:52;17.49;59.24
75683;HTU21D;64295;44.772;39.872;2023-04-30T13:18:21;17.51;59.05
75683;HTU21D;64295;44.772;39.872;2023-04-30T13:20:47;17.53;58.90
75683;HTU21D;64295;44.772;39.872;2023-04-30T13:23:13;17.56;58.52
75683;HTU21D;64295;44.772;39.872;2023-04-30T13:25:39;17.56;58.27
75683;HTU21D;64295;44.772;39.872;2023-04-30T13:28:10;17.52;58.06
75683;HTU21D;64295;44.772;39.872;2023-04-30T13:30:38;17.36;58.32
75683;HTU21D;64295;44.772;39.872;2023-04-30T13:33:08;17.31;58.19
75683;HTU21D;64295;44.772;39.872;2023-04-30T13:35:59;17.24;58.26
75683;HTU21D;64295;44.772;39.872;2023-04-30T13:38:31;17.13;58.70
75683;HTU21D;64295;44.772;39.872;2023-04-30T13:40:57;17.11;58.85
75683;HTU21D;64295;44.772;39.872;2023-04-30T13:43:27;17.08;58.81
75683;HTU21D;64295;44.772;39.872;2023-04-30T13:46:00;17.14;58.96
75683;HTU21D;64295;44.772;39.872;2023-04-30T13:48:26;17.29;58.38
75683;HTU21D;64295;44.772;39.872;2023-04-30T13:50:54;17.29;57.91
75683;HTU21D;64295;44.772;39.872;2023-04-30T13:53:19;17.25;57.81
75683;HTU21D;64295;44.772;39.872;2023-04-30T13:55:45;17.34;57.87
75683;HTU21D;64295;44.772;39.872;2023-04-30T13:58:12;17.52;57.66
75683;HTU21D;64295;44.772;39.872;2023-04-30T14:00:38;17.66;57.57
75683;HTU21D;64295;44.772;39.872;2023-04-30T14:03:04;17.73;57.16
75683;HTU21D;64295;44.772;39.872;2023-04-30T14:05:30;17.67;57.09
75683;HTU21D;64295;44.772;39.872;2023-04-30T14:07:56;17.54;56.68
75683;HTU21D;64295;44.772;39.872;2023-04-30T14:10:22;17.48;56.97
75683;HTU21D;64295;44.772;39.872;2023-04-30T14:12:48;17.51;56.78
75683;HTU21D;64295;44.772;39.872;2023-04-30T14:15:14;17.48;56.45
75683;HTU21D;64295;44.772;39.872;2023-04-30T14:17:41;17.44;56.35
75683;HTU21D;64295;44.772;39.872;2023-04-30T14:20:08;17.37;56.23
75683;HTU21D;64295;44.772;39.872;2023-04-30T14:22:34;17.34;56.63
75683;HTU21D;64295;44.772;39.872;2023-04-30T14:25:03;17.45;56.32
75683;HTU21D;64295;44.772;39.872;2023-04-30T14:27:30;17.47;56.39
75683;HTU21D;64295;44.772;39.872;2023-04-30T14:29:56;17.50;56.42
75683;HTU21D;64295;44.772;39.872;2023-04-30T14:32:24;17.51;56.13
75683;HTU21D;64295;44.772;39.872;2023-04-30T14:34:50;17.46;55.84
75683;HTU21D;64295;44.772;39.872;2023-04-30T14:37:17;17.39;55.94
75683;HTU21D;64295;44.772;39.872;2023-04-30T14:39:47;17.43;55.90
75683;HTU21D;64295;44.772;39.872;2023-04-30T14:42:14;17.34;55.81
75683;HTU21D;64295;44.772;39.872;2023-04-30T14:44:40;17.23;55.56
75683;HTU21D;64295;44.772;39.872;2023-04-30T14:47:09;17.09;55.87
75683;HTU21D;64295;44.772;39.872;2023-04-30T14:49:36;17.04;55.73
75683;HTU21D;64295;44.772;39.872;2023-04-30T14:52:02;16.95;55.77
75683;HTU21D;64295;44.772;39.872;2023-04-30T14:54:28;16.98;55.94
75683;HTU21D;64295;44.772;39.872;2023-04-30T14:56:54;16.94;55.88
75683;HTU21D;64295;44.772;39.872;2023-04-30T14:59:20;16.92;55.87
75683;HTU21D;64295;44.772;39.872;2023-04-30T15:01:46;16.84;55.79
75683;HTU21D;64295;44.772;39.872;2023-04-30T15:04:11;16.71;56.16
75683;HTU21D;64295;44.772;39.872;2023-04-30T15:06:37;16.60;56.37
75683;HTU21D;64295;44.772;39.872;2023-04-30T15:09:03;16.54;56.45
75683;HTU21D;64295;44.772;39.872;2023-04-30T15:11:29;16.46;56.49
75683;HTU21D;64295;44.772;39.872;2023-04-30T15:13:56;16.34;56.75
75683;HTU21D;64295;44.772;39.872;2023-04-30T15:16:23;16.30;56.88
75683;HTU21D;64295;44.772;39.872;2023-04-30T15:18:49;16.17;56.85
75683;HTU21D;64295;44.772;39.872;2023-04-30T15:21:15;16.02;57.08
75683;HTU21D;64295;44.772;39.872;2023-04-30T15:23:41;15.92;57.32
75683;HTU21D;64295;44.772;39.872;2023-04-30T15:26:07;15.83;57.47
75683;HTU21D;64295;44.772;39.872;2023-04-30T15:28:33;15.75;57.71
75683;HTU21D;64295;44.772;39.872;2023-04-30T15:30:59;15.66;57.74
75683;HTU21D;64295;44.772;39.872;2023-04-30T15:33:26;15.55;58.07
75683;HTU21D;64295;44.772;39.872;2023-04-30T15:35:53;15.46;58.24
75683;HTU21D;64295;44.772;39.872;2023-04-30T15:38:20;15.39;58.42